HKMO/MBA METAR and TAF weather

Enter ICAO airport designator
Station Type Date Time Source
HKMO METAR 2019/04/18 20:00 UTC NOAA

HKMO 182000Z 19008KT 9999 FEW025 28/25 Q1013 NOSIG


Station Type Date Time Source
HKMO Decoded METAR 2019/04/18 20:00 UTC NOAA

Mombasa, Kenya (HKMO) 04-02S 039-37E 55M
Apr 18, 2019 - 04:00 PM EDT / 2019.04.18 2000 UTC
Wind: from the S (190 degrees) at 9 MPH (8 KT):0
Visibility: greater than 7 mile(s):0
Sky conditions: mostly clear
Temperature: 82 F (28 C)
Dew Point: 77 F (25 C)
Relative Humidity: 83%
Pressure (altimeter): 29.91 in. Hg (1013 hPa)
ob: HKMO 182000Z 19008KT 9999 FEW025 28/25 Q1013 NOSIG
cycle: 20

Station Type Date Time Source
HKMO TAF 2019/04/15 00:36 UTC NOAA

TAF HKMO 142300Z 1500/1606 16005KT 9999 SCT020
BECMG 1509/1512 15010KT SCT026
BECMG 1518/1521 18005KT FEW022
BECMG 1600/1606 22005KT FEW020

Example: see airport list